Time;durP1;ratioP1;P1;durP2;ratioP2;P2;SDS_P1;SDS_P2;PMS_P1;PMS_P2;Temp;Humidity;BMP_temperature;BMP_pressure;BME280_temperature;BME280_humidity;BME280_pressure;Samples;Min_cycle;Max_cycle;Signal;HPM_P1;HPM_P2
2022/05/27 00:00:53;;;;;;;3.10;1.13;;;;;;;;;;5053809;28;20136;-86
2022/05/27 00:03:21;;;;;;;1.83;1.40;;;;;;;;;;5053271;28;20049;-85
2022/05/27 00:05:50;;;;;;;3.22;1.83;;;;;;;;;;5055869;28;20113;-86
2022/05/27 00:08:17;;;;;;;1.80;1.05;;;;;;;;;;5052960;28;20076;-85
2022/05/27 00:10:45;;;;;;;3.85;1.17;;;;;;;;;;5053890;28;20152;-85
2022/05/27 00:13:12;;;;;;;3.33;1.20;;;;;;;;;;5052831;28;20049;-85
2022/05/27 00:15:40;;;;;;;1.27;1.00;;;;;;;;;;5053125;28;20057;-86
2022/05/27 00:18:07;;;;;;;1.95;0.98;;;;;;;;;;5052967;28;20053;-86
2022/05/27 00:20:35;;;;;;;1.63;1.00;;;;;;;;;;5052512;28;20504;-85
2022/05/27 00:23:02;;;;;;;2.67;1.17;;;;;;;;;;5052802;28;20080;-85
2022/05/27 00:25:30;;;;;;;2.28;1.27;;;;;;;;;;5053377;28;20553;-85
2022/05/27 00:27:57;;;;;;;5.30;1.30;;;;;;;;;;5053116;28;20049;-85
2022/05/27 00:30:24;;;;;;;1.27;1.10;;;;;;;;;;5053699;28;20080;-85
2022/05/27 00:32:52;;;;;;;2.63;1.42;;;;;;;;;;5052708;28;20049;-85
2022/05/27 00:35:19;;;;;;;1.52;1.42;;;;;;;;;;5053457;28;20119;-85
2022/05/27 00:37:46;;;;;;;2.72;1.33;;;;;;;;;;5052177;28;20055;-85
2022/05/27 00:40:15;;;;;;;4.45;1.23;;;;;;;;;;5052292;28;20576;-85
2022/05/27 00:42:43;;;;;;;2.30;1.50;;;;;;;;;;5052635;28;20088;-85
2022/05/27 00:45:14;;;;;;;1.98;1.38;;;;;;;;;;5052440;28;20091;-85
2022/05/27 00:47:42;;;;;;;2.50;1.63;;;;;;;;;;5052749;28;20124;-85
2022/05/27 00:50:11;;;;;;;3.40;1.48;;;;;;;;;;5053143;28;20103;-84
2022/05/27 00:52:39;;;;;;;3.25;1.25;;;;;;;;;;5052446;28;20051;-85
2022/05/27 00:55:08;;;;;;;4.53;1.55;;;;;;;;;;5053368;28;20057;-85
2022/05/27 00:57:47;;;;;;;2.78;1.50;;;;;;;;;;5053023;28;20103;-85
2022/05/27 01:00:19;;;;;;;3.47;1.40;;;;;;;;;;5052076;28;20075;-85
2022/05/27 01:02:47;;;;;;;6.00;1.50;;;;;;;;;;5051990;28;20141;-85
2022/05/27 01:05:16;;;;;;;3.92;1.40;;;;;;;;;;5051650;28;20045;-85
2022/05/27 01:07:43;;;;;;;6.30;2.10;;;;;;;;;;5052157;28;20448;-85
2022/05/27 01:10:13;;;;;;;4.60;1.70;;;;;;;;;;5053070;28;20051;-85
2022/05/27 01:12:47;;;;;;;5.07;1.60;;;;;;;;;;5052122;28;20140;-84
2022/05/27 01:15:20;;;;;;;1.77;1.35;;;;;;;;;;5052766;28;20127;-85
2022/05/27 01:17:59;;;;;;;5.47;1.60;;;;;;;;;;5052015;28;20462;-85
2022/05/27 01:20:31;;;;;;;3.15;1.40;;;;;;;;;;5052228;28;20059;-85
2022/05/27 01:23:07;;;;;;;2.33;1.85;;;;;;;;;;5051995;28;20127;-85
2022/05/27 01:25:53;;;;;;;3.67;1.50;;;;;;;;;;5052482;28;20141;-85
2022/05/27 01:28:39;;;;;;;5.47;1.75;;;;;;;;;;5052511;28;20049;-85
2022/05/27 01:31:22;;;;;;;2.47;2.03;;;;;;;;;;5051809;28;20084;-85
2022/05/27 01:34:03;;;;;;;3.17;1.60;;;;;;;;;;5054009;28;20049;-85
2022/05/27 01:36:33;;;;;;;3.03;1.90;;;;;;;;;;5056762;28;20080;-85
2022/05/27 01:39:04;;;;;;;2.22;1.95;;;;;;;;;;5056994;28;20048;-85
2022/05/27 01:41:31;;;;;;;2.35;1.92;;;;;;;;;;5055790;28;20053;-85
2022/05/27 01:44:02;;;;;;;3.80;1.70;;;;;;;;;;5056624;28;20084;-85
2022/05/27 01:46:34;;;;;;;4.43;2.05;;;;;;;;;;5056553;28;20100;-85
2022/05/27 01:49:08;;;;;;;5.03;2.72;;;;;;;;;;5056624;28;20110;-85
2022/05/27 01:51:45;;;;;;;6.22;2.40;;;;;;;;;;5056687;28;20135;-85
2022/05/27 01:54:16;;;;;;;5.07;2.00;;;;;;;;;;5056511;28;20485;-85
2022/05/27 01:56:46;;;;;;;4.63;2.20;;;;;;;;;;5056465;28;20077;-85
2022/05/27 01:59:16;;;;;;;4.55;2.22;;;;;;;;;;5056471;28;20555;-85
2022/05/27 02:01:49;;;;;;;2.95;1.92;;;;;;;;;;5055582;28;20084;-85
2022/05/27 02:04:20;;;;;;;3.50;1.80;;;;;;;;;;5056325;28;20045;-85
2022/05/27 02:06:50;;;;;;;3.90;2.60;;;;;;;;;;5056243;28;20132;-85
2022/05/27 02:09:20;;;;;;;3.55;2.22;;;;;;;;;;5055111;28;20045;-85
2022/05/27 02:11:49;;;;;;;5.15;2.00;;;;;;;;;;5055078;28;20048;-85
2022/05/27 02:14:24;;;;;;;3.00;2.03;;;;;;;;;;5054861;28;20041;-85
2022/05/27 02:16:54;;;;;;;2.35;1.65;;;;;;;;;;5056259;28;20120;-85
2022/05/27 02:19:22;;;;;;;2.25;1.63;;;;;;;;;;5056448;28;20049;-85
2022/05/27 02:21:52;;;;;;;3.67;1.70;;;;;;;;;;5056076;28;20131;-85
2022/05/27 02:24:23;;;;;;;4.03;2.17;;;;;;;;;;5056057;28;20052;-85
2022/05/27 02:26:54;;;;;;;2.65;1.95;;;;;;;;;;5055050;28;20128;-85
2022/05/27 02:29:23;;;;;;;4.05;1.70;;;;;;;;;;5054966;28;20127;-85
2022/05/27 02:31:55;;;;;;;1.98;1.88;;;;;;;;;;5056049;28;20051;-85
2022/05/27 02:37:17;;;;;;;5.03;1.75;;;;;;;;;;5055774;28;20136;-85
2022/05/27 02:39:44;;;;;;;5.07;2.10;;;;;;;;;;5054977;28;20049;-85
2022/05/27 02:42:17;;;;;;;5.15;2.33;;;;;;;;;;5055680;28;20447;-85
2022/05/27 02:45:02;;;;;;;2.67;1.92;;;;;;;;;;5054672;28;20049;-85
2022/05/27 02:47:35;;;;;;;3.65;2.00;;;;;;;;;;5055483;28;20065;-85
2022/05/27 02:50:09;;;;;;;4.27;2.13;;;;;;;;;;5055698;28;20489;-85
2022/05/27 02:52:55;;;;;;;3.00;2.20;;;;;;;;;;5054855;28;20327;-85
2022/05/27 02:55:32;;;;;;;4.00;2.38;;;;;;;;;;5054306;28;20122;-85
2022/05/27 02:58:02;;;;;;;6.18;2.55;;;;;;;;;;5055213;28;20065;-85
2022/05/27 03:00:31;;;;;;;2.53;2.10;;;;;;;;;;5054518;28;20409;-85
2022/05/27 03:02:59;;;;;;;4.70;2.63;;;;;;;;;;5054547;28;20092;-85
2022/05/27 03:05:28;;;;;;;4.82;2.30;;;;;;;;;;5054056;28;20077;-85
2022/05/27 03:08:15;;;;;;;4.30;2.67;;;;;;;;;;5054014;28;20537;-84
2022/05/27 03:11:03;;;;;;;3.90;2.30;;;;;;;;;;5055195;28;20051;-85
2022/05/27 03:13:37;;;;;;;3.08;2.63;;;;;;;;;;5054199;28;20060;-85
2022/05/27 03:16:19;;;;;;;3.50;2.25;;;;;;;;;;5053768;28;20049;-85
2022/05/27 03:19:00;;;;;;;3.33;2.10;;;;;;;;;;5055356;28;20055;-85
2022/05/27 03:21:45;;;;;;;4.85;2.42;;;;;;;;;;5055204;28;20049;-85
2022/05/27 03:24:16;;;;;;;3.85;2.53;;;;;;;;;;5053983;28;20071;-85
2022/05/27 03:26:52;;;;;;;4.82;2.30;;;;;;;;;;5053696;28;20048;-85
2022/05/27 03:29:25;;;;;;;3.47;2.50;;;;;;;;;;5054886;28;20131;-85
2022/05/27 03:31:57;;;;;;;4.28;2.38;;;;;;;;;;5053582;28;20135;-85
2022/05/27 03:34:28;;;;;;;3.60;2.50;;;;;;;;;;5053437;28;20080;-85
2022/05/27 03:37:01;;;;;;;6.10;2.83;;;;;;;;;;5053612;28;20140;-84
2022/05/27 03:39:35;;;;;;;3.53;2.45;;;;;;;;;;5054391;28;20049;-84
2022/05/27 03:42:04;;;;;;;6.10;2.63;;;;;;;;;;5054717;28;20458;-85
2022/05/27 03:44:31;;;;;;;3.05;2.55;;;;;;;;;;5053286;28;20041;-84
2022/05/27 03:46:59;;;;;;;5.95;2.45;;;;;;;;;;5054499;28;20131;-85
2022/05/27 03:49:26;;;;;;;5.15;2.78;;;;;;;;;;5053196;28;20099;-85
2022/05/27 03:52:03;;;;;;;4.32;2.65;;;;;;;;;;5054165;28;20478;-84
2022/05/27 03:54:31;;;;;;;6.22;2.42;;;;;;;;;;5053227;28;20155;-85
2022/05/27 03:56:58;;;;;;;3.60;2.42;;;;;;;;;;5052346;28;20061;-84
2022/05/27 03:59:26;;;;;;;5.07;2.65;;;;;;;;;;5054441;28;20432;-85
2022/05/27 04:01:54;;;;;;;3.28;2.53;;;;;;;;;;5053037;28;20476;-85
2022/05/27 04:04:23;;;;;;;7.28;4.03;;;;;;;;;;5052557;28;20123;-84
2022/05/27 04:06:50;;;;;;;10.10;6.45;;;;;;;;;;5053050;28;20053;-84
2022/05/27 04:09:19;;;;;;;10.73;7.13;;;;;;;;;;5053015;28;20095;-84
2022/05/27 04:11:46;;;;;;;13.68;7.60;;;;;;;;;;5054076;28;20132;-84
2022/05/27 04:14:14;;;;;;;10.85;6.43;;;;;;;;;;5053909;28;20057;-85
2022/05/27 04:16:41;;;;;;;7.75;4.47;;;;;;;;;;5052600;28;20314;-85
2022/05/27 04:19:09;;;;;;;10.68;3.47;;;;;;;;;;5052524;28;20063;-84
2022/05/27 04:21:37;;;;;;;16.65;4.45;;;;;;;;;;5052897;28;20091;-85
2022/05/27 04:24:04;;;;;;;18.70;3.15;;;;;;;;;;5052402;28;20131;-85
2022/05/27 04:26:31;;;;;;;12.05;3.10;;;;;;;;;;5053639;28;20099;-85
2022/05/27 04:29:00;;;;;;;13.88;3.47;;;;;;;;;;5053106;28;20190;-85
2022/05/27 04:31:27;;;;;;;23.88;4.50;;;;;;;;;;5052362;28;20059;-85
2022/05/27 04:33:55;;;;;;;19.10;3.10;;;;;;;;;;5052551;28;20131;-85
2022/05/27 04:36:22;;;;;;;8.70;2.20;;;;;;;;;;5052354;28;20077;-85
2022/05/27 04:38:49;;;;;;;6.60;2.92;;;;;;;;;;5052436;28;20472;-84
2022/05/27 04:41:16;;;;;;;5.47;2.50;;;;;;;;;;5052178;28;20501;-85
2022/05/27 04:43:44;;;;;;;3.55;2.35;;;;;;;;;;5053112;28;20096;-84
2022/05/27 04:46:11;;;;;;;7.22;2.38;;;;;;;;;;5052063;28;20053;-85
2022/05/27 04:48:38;;;;;;;5.40;2.22;;;;;;;;;;5053388;28;20052;-87
2022/05/27 04:51:05;;;;;;;11.23;1.98;;;;;;;;;;5052651;28;20076;-85
2022/05/27 04:53:33;;;;;;;7.43;2.08;;;;;;;;;;5052150;28;20041;-85
2022/05/27 04:56:00;;;;;;;7.53;1.80;;;;;;;;;;5053095;28;20049;-85
2022/05/27 04:58:27;;;;;;;7.90;1.60;;;;;;;;;;5051921;28;20472;-85
2022/05/27 05:00:58;;;;;;;6.03;1.67;;;;;;;;;;5053018;28;20057;-86
2022/05/27 05:03:26;;;;;;;3.42;1.27;;;;;;;;;;5052260;28;20049;-87
2022/05/27 05:05:53;;;;;;;4.40;1.35;;;;;;;;;;5052070;28;20390;-86
2022/05/27 05:08:29;;;;;;;5.25;1.40;;;;;;;;;;5052224;28;20059;-86
2022/05/27 05:10:56;;;;;;;5.28;2.20;;;;;;;;;;5051694;28;20088;-85
2022/05/27 05:13:23;;;;;;;3.38;1.58;;;;;;;;;;5052801;28;20155;-86
2022/05/27 05:15:50;;;;;;;4.20;1.40;;;;;;;;;;5052169;28;20458;-86
2022/05/27 05:18:17;;;;;;;3.65;1.50;;;;;;;;;;5051833;28;20056;-86
2022/05/27 05:20:44;;;;;;;4.10;1.58;;;;;;;;;;5051824;28;20049;-85
2022/05/27 05:23:11;;;;;;;7.78;1.80;;;;;;;;;;5051802;28;20052;-87
2022/05/27 05:25:39;;;;;;;6.22;1.48;;;;;;;;;;5051684;28;20089;-85
2022/05/27 05:28:06;;;;;;;3.50;1.00;;;;;;;;;;5051935;28;20049;-85
2022/05/27 05:30:35;;;;;;;4.53;1.27;;;;;;;;;;5051671;28;20709;-85
2022/05/27 05:33:02;;;;;;;14.45;2.58;;;;;;;;;;5051786;28;20088;-85
2022/05/27 05:35:29;;;;;;;6.13;1.60;;;;;;;;;;5051657;28;20056;-86
2022/05/27 05:37:57;;;;;;;4.10;1.30;;;;;;;;;;5052646;28;20132;-86
2022/05/27 05:40:24;;;;;;;4.85;1.35;;;;;;;;;;5051605;28;20053;-86
2022/05/27 05:42:51;;;;;;;5.88;1.45;;;;;;;;;;5051909;28;20124;-85
2022/05/27 05:45:19;;;;;;;4.47;1.98;;;;;;;;;;5051384;28;20053;-86
2022/05/27 05:47:47;;;;;;;11.50;1.70;;;;;;;;;;5051681;28;20052;-87
2022/05/27 05:50:15;;;;;;;6.68;1.50;;;;;;;;;;5051940;28;20132;-85
2022/05/27 05:52:42;;;;;;;4.97;1.48;;;;;;;;;;5051955;28;20053;-85
2022/05/27 05:55:10;;;;;;;5.68;1.35;;;;;;;;;;5051458;28;20049;-84
2022/05/27 05:57:38;;;;;;;4.78;1.58;;;;;;;;;;5052747;28;20053;-85
2022/05/27 06:00:06;;;;;;;4.15;1.30;;;;;;;;;;5051397;28;20124;-84
2022/05/27 06:02:33;;;;;;;9.63;1.70;;;;;;;;;;5052783;28;20471;-89
2022/05/27 06:05:03;;;;;;;3.55;1.30;;;;;;;;;;5052230;28;20084;-85
2022/05/27 06:07:32;;;;;;;3.60;1.60;;;;;;;;;;5051566;28;20051;-85
2022/05/27 06:09:59;;;;;;;4.30;1.23;;;;;;;;;;5051338;28;20410;-85
2022/05/27 06:12:27;;;;;;;6.90;1.58;;;;;;;;;;5051341;28;20129;-87
2022/05/27 06:14:54;;;;;;;7.13;1.50;;;;;;;;;;5051333;28;20088;-85
2022/05/27 06:17:22;;;;;;;4.78;1.80;;;;;;;;;;5051006;28;20152;-86
2022/05/27 06:19:49;;;;;;;2.90;1.27;;;;;;;;;;5053169;28;20049;-84
2022/05/27 06:22:16;;;;;;;4.32;1.52;;;;;;;;;;5055100;28;20128;-86
2022/05/27 06:24:44;;;;;;;9.68;1.75;;;;;;;;;;5054955;28;20118;-85
2022/05/27 06:27:11;;;;;;;4.53;1.20;;;;;;;;;;5054954;28;20084;-86
2022/05/27 06:35:10;;;;;;;6.60;1.33;;;;;;;;;;5055815;28;20139;-86
2022/05/27 06:37:37;;;;;;;5.72;1.52;;;;;;;;;;5055072;28;20144;-87
2022/05/27 06:40:05;;;;;;;7.32;1.65;;;;;;;;;;5055751;28;20076;-86
2022/05/27 06:42:32;;;;;;;2.78;1.20;;;;;;;;;;5054642;28;20079;-85
2022/05/27 06:45:06;;;;;;;5.68;1.50;;;;;;;;;;5054733;28;20049;-85
2022/05/27 06:47:33;;;;;;;5.72;1.48;;;;;;;;;;5055714;28;20051;-86
2022/05/27 06:50:01;;;;;;;4.95;1.50;;;;;;;;;;5054605;28;20219;-86
2022/05/27 06:52:28;;;;;;;6.88;1.60;;;;;;;;;;5055106;28;20080;-85
2022/05/27 06:54:55;;;;;;;5.78;1.88;;;;;;;;;;5054378;28;20099;-85
2022/05/27 06:57:23;;;;;;;4.70;1.65;;;;;;;;;;5068495;28;20052;-85
2022/05/27 06:59:50;;;;;;;7.82;1.55;;;;;;;;;;5091235;28;20074;-87
2022/05/27 07:02:17;;;;;;;8.82;1.70;;;;;;;;;;5085042;28;20080;-85
2022/05/27 07:04:45;;;;;;;6.15;1.77;;;;;;;;;;5089869;28;20048;-85
2022/05/27 07:07:12;;;;;;;3.67;1.40;;;;;;;;;;5076126;28;20044;-87
2022/05/27 07:09:39;;;;;;;4.50;1.55;;;;;;;;;;5075807;28;20055;-87
2022/05/27 07:12:08;;;;;;;3.42;1.40;;;;;;;;;;5083666;28;20087;-86
2022/05/27 07:14:38;;;;;;;6.35;1.52;;;;;;;;;;5075149;28;20072;-88
2022/05/27 07:17:05;;;;;;;5.03;1.20;;;;;;;;;;5083466;28;20051;-86
2022/05/27 07:19:36;;;;;;;4.15;1.30;;;;;;;;;;5090619;28;20125;-85
2022/05/27 07:22:05;;;;;;;3.17;1.02;;;;;;;;;;5082323;28;20080;-86
2022/05/27 07:24:33;;;;;;;7.63;1.38;;;;;;;;;;5091023;28;20143;-87
2022/05/27 07:27:00;;;;;;;6.28;1.67;;;;;;;;;;5091315;28;20072;-86
2022/05/27 07:29:27;;;;;;;3.53;1.27;;;;;;;;;;5088193;28;20072;-85
2022/05/27 07:31:54;;;;;;;4.38;1.27;;;;;;;;;;5089771;28;20048;-89
2022/05/27 07:34:21;;;;;;;5.30;1.40;;;;;;;;;;5074793;28;20099;-86
2022/05/27 07:36:48;;;;;;;3.42;1.42;;;;;;;;;;5075102;28;20140;-87
2022/05/27 07:39:16;;;;;;;4.32;1.30;;;;;;;;;;5074909;28;20484;-86
2022/05/27 07:41:44;;;;;;;4.03;1.40;;;;;;;;;;5075002;28;20075;-90
2022/05/27 07:44:11;;;;;;;4.07;1.67;;;;;;;;;;5083660;28;20072;-86
2022/05/27 07:46:39;;;;;;;4.70;1.60;;;;;;;;;;5090871;28;20127;-85
2022/05/27 07:49:07;;;;;;;5.68;1.13;;;;;;;;;;5082718;28;20049;-85
2022/05/27 07:51:54;;;;;;;3.38;1.40;;;;;;;;;;5087993;28;20040;-86
2022/05/27 07:54:21;;;;;;;2.58;1.10;;;;;;;;;;5085047;28;20097;-88
2022/05/27 07:56:49;;;;;;;3.47;1.00;;;;;;;;;;5090086;28;20584;-85
2022/05/27 07:59:16;;;;;;;7.25;1.58;;;;;;;;;;5083613;28;20072;-85
2022/05/27 08:01:44;;;;;;;2.13;0.88;;;;;;;;;;5090110;28;20135;-85
2022/05/27 08:04:11;;;;;;;3.50;0.90;;;;;;;;;;5083017;28;20159;-87
2022/05/27 08:06:40;;;;;;;3.00;1.10;;;;;;;;;;5090966;28;20040;-86
2022/05/27 08:09:11;;;;;;;5.72;1.08;;;;;;;;;;5083108;28;20044;-88
2022/05/27 08:11:39;;;;;;;3.65;1.00;;;;;;;;;;5090420;28;20041;-85
2022/05/27 08:14:06;;;;;;;5.95;0.98;;;;;;;;;;5073728;28;20091;-84
2022/05/27 08:16:35;;;;;;;4.60;1.00;;;;;;;;;;5074204;28;20560;-86
2022/05/27 08:19:02;;;;;;;2.55;0.90;;;;;;;;;;5074229;28;20094;-83
2022/05/27 08:21:29;;;;;;;3.03;0.90;;;;;;;;;;5085274;28;20052;-87
2022/05/27 08:23:56;;;;;;;5.78;1.30;;;;;;;;;;5090335;28;20110;-84
2022/05/27 08:26:24;;;;;;;0.85;0.65;;;;;;;;;;5084841;28;20052;-87
2022/05/27 08:28:51;;;;;;;1.48;0.70;;;;;;;;;;5073676;28;20527;-86
2022/05/27 08:31:19;;;;;;;2.13;0.82;;;;;;;;;;5083286;28;20106;-85
2022/05/27 08:39:17;;;;;;;5.10;0.50;;;;;;;;;;5073403;28;20056;-87
2022/05/27 08:41:51;;;;;;;2.28;0.68;;;;;;;;;;5073626;28;20048;-86
2022/05/27 08:44:35;;;;;;;0.90;0.55;;;;;;;;;;5073545;28;20072;-87
2022/05/27 08:47:02;;;;;;;0.60;0.52;;;;;;;;;;5081343;28;20476;-88
2022/05/27 08:49:38;;;;;;;0.40;0.40;;;;;;;;;;5089170;28;20548;-86
2022/05/27 08:52:05;;;;;;;3.80;0.85;;;;;;;;;;5089170;28;20055;-86
2022/05/27 08:54:45;;;;;;;2.35;0.50;;;;;;;;;;5089161;28;20496;-87
2022/05/27 09:00:05;;;;;;;1.38;0.60;;;;;;;;;;5073281;28;20066;-84
2022/05/27 09:02:32;;;;;;;0.50;0.50;;;;;;;;;;5084876;28;20556;-86
2022/05/27 09:04:59;;;;;;;1.98;0.50;;;;;;;;;;5073234;28;20131;-85
2022/05/27 09:07:31;;;;;;;0.60;0.60;;;;;;;;;;5084243;28;20082;-83
2022/05/27 09:10:00;;;;;;;0.73;0.60;;;;;;;;;;5088773;28;20098;-84
2022/05/27 09:12:33;;;;;;;2.13;0.52;;;;;;;;;;5072803;28;20058;-84
2022/05/27 09:15:03;;;;;;;1.13;0.50;;;;;;;;;;5088448;28;20147;-85
2022/05/27 09:17:36;;;;;;;1.13;0.50;;;;;;;;;;5073157;28;20058;-84
2022/05/27 09:20:11;;;;;;;1.58;0.35;;;;;;;;;;5073020;28;20048;-86
2022/05/27 09:22:50;;;;;;;0.60;0.40;;;;;;;;;;5073102;28;20098;-83
2022/05/27 09:25:35;;;;;;;2.05;0.40;;;;;;;;;;5072504;28;20055;-83
2022/05/27 09:28:21;;;;;;;2.42;0.50;;;;;;;;;;5079750;28;20501;-84
2022/05/27 09:30:50;;;;;;;0.90;0.80;;;;;;;;;;5088025;28;20052;-82
2022/05/27 09:33:23;;;;;;;3.42;0.90;;;;;;;;;;5081482;28;20064;-82
2022/05/27 09:35:51;;;;;;;1.90;0.53;;;;;;;;;;5071913;28;20603;-81
2022/05/27 09:38:20;;;;;;;1.55;0.40;;;;;;;;;;5071994;28;20342;-82
2022/05/27 09:40:53;;;;;;;1.38;0.70;;;;;;;;;;5085884;28;20098;-82
2022/05/27 09:43:24;;;;;;;2.53;0.67;;;;;;;;;;5081818;28;20131;-81
2022/05/27 09:45:55;;;;;;;0.73;0.60;;;;;;;;;;5087498;28;20075;-82
2022/05/27 09:48:22;;;;;;;1.75;0.85;;;;;;;;;;5082489;28;20075;-82
2022/05/27 09:50:50;;;;;;;3.70;1.23;;;;;;;;;;5072312;28;20091;-82
2022/05/27 09:53:18;;;;;;;5.35;1.33;;;;;;;;;;5081869;28;20059;-82
2022/05/27 09:55:55;;;;;;;5.13;1.48;;;;;;;;;;5091221;28;20485;-83
2022/05/27 09:58:27;;;;;;;6.10;2.42;;;;;;;;;;5056654;28;20149;-82
2022/05/27 10:00:54;;;;;;;2.33;1.20;;;;;;;;;;5055914;28;20092;-82
2022/05/27 10:03:30;;;;;;;4.35;1.40;;;;;;;;;;5055016;28;20053;-82
2022/05/27 10:06:01;;;;;;;3.22;1.25;;;;;;;;;;5055833;28;20394;-82
2022/05/27 10:08:40;;;;;;;3.78;1.23;;;;;;;;;;5054906;28;20049;-82
2022/05/27 10:11:10;;;;;;;6.43;2.53;;;;;;;;;;5055805;28;20132;-82
2022/05/27 10:13:40;;;;;;;5.60;2.88;;;;;;;;;;5054910;28;20045;-82
2022/05/27 10:16:11;;;;;;;5.90;2.78;;;;;;;;;;5055773;28;20052;-82
2022/05/27 10:18:39;;;;;;;3.75;1.92;;;;;;;;;;5054941;28;20052;-82
2022/05/27 10:21:10;;;;;;;2.85;1.33;;;;;;;;;;5054550;28;20106;-82
2022/05/27 10:23:39;;;;;;;8.25;1.90;;;;;;;;;;5055719;28;20495;-83
2022/05/27 10:26:26;;;;;;;4.50;1.42;;;;;;;;;;5054385;28;20053;-83
2022/05/27 10:28:58;;;;;;;5.05;1.35;;;;;;;;;;5054216;28;20045;-83
2022/05/27 10:31:26;;;;;;;2.53;1.17;;;;;;;;;;5055626;28;20045;-82
2022/05/27 10:33:53;;;;;;;1.05;0.98;;;;;;;;;;5054293;28;20056;-81
2022/05/27 10:36:26;;;;;;;4.00;1.05;;;;;;;;;;5054069;28;20132;-83
2022/05/27 10:38:57;;;;;;;4.18;1.33;;;;;;;;;;5054351;28;20143;-82
2022/05/27 10:41:27;;;;;;;2.13;0.93;;;;;;;;;;5054479;28;20452;-83
2022/05/27 10:43:58;;;;;;;2.72;1.00;;;;;;;;;;5055372;28;20055;-82
2022/05/27 10:46:30;;;;;;;1.48;0.80;;;;;;;;;;5055296;28;20408;-81
2022/05/27 10:49:06;;;;;;;1.27;1.13;;;;;;;;;;5055179;28;20056;-82
2022/05/27 10:51:40;;;;;;;3.08;1.20;;;;;;;;;;5054227;28;20091;-83
2022/05/27 10:54:10;;;;;;;2.33;1.15;;;;;;;;;;5054200;28;20443;-83
2022/05/27 10:56:37;;;;;;;2.05;1.23;;;;;;;;;;5053917;28;20156;-82
2022/05/27 11:02:14;;;;;;;3.60;1.20;;;;;;;;;;5052048;28;20052;-82
2022/05/27 11:05:01;;;;;;;4.70;1.50;;;;;;;;;;5055015;28;20136;-83
2022/05/27 11:07:38;;;;;;;1.73;0.80;;;;;;;;;;5053764;28;20410;-83
2022/05/27 11:10:14;;;;;;;5.18;1.38;;;;;;;;;;5055228;28;20053;-84
2022/05/27 11:15:35;;;;;;;0.73;0.55;;;;;;;;;;5054422;28;20551;-83
2022/05/27 11:18:15;;;;;;;1.60;0.82;;;;;;;;;;5053545;28;20052;-83
2022/05/27 11:20:46;;;;;;;0.75;0.60;;;;;;;;;;5053558;28;20080;-84
2022/05/27 11:23:39;;;;;;;0.93;0.80;;;;;;;;;;5054949;28;20152;-83
2022/05/27 11:26:22;;;;;;;2.77;0.90;;;;;;;;;;5053093;28;20469;-83
2022/05/27 11:28:49;;;;;;;1.83;0.70;;;;;;;;;;5053147;28;20059;-84
2022/05/27 11:31:35;;;;;;;1.35;0.57;;;;;;;;;;5053193;28;20060;-83
2022/05/27 11:34:22;;;;;;;0.73;0.50;;;;;;;;;;5054152;28;20049;-83
2022/05/27 11:36:55;;;;;;;1.02;0.40;;;;;;;;;;5053260;28;20569;-84
2022/05/27 11:39:32;;;;;;;0.70;0.50;;;;;;;;;;5053224;28;20060;-83
2022/05/27 11:42:17;;;;;;;0.30;0.22;;;;;;;;;;5054425;28;20053;-84
2022/05/27 11:44:50;;;;;;;1.02;0.52;;;;;;;;;;5052710;28;20076;-84
2022/05/27 11:47:37;;;;;;;2.72;0.45;;;;;;;;;;5054298;28;20139;-84
2022/05/27 11:50:27;;;;;;;0.73;0.60;;;;;;;;;;5036404;28;20432;-84
2022/05/27 11:53:18;;;;;;;0.50;0.50;;;;;;;;;;5052896;28;20057;-83
2022/05/27 11:55:57;;;;;;;0.40;0.40;;;;;;;;;;5035884;28;20049;-83
2022/05/27 11:58:27;;;;;;;0.40;0.30;;;;;;;;;;5052609;28;20390;-84
2022/05/27 12:00:59;;;;;;;0.30;0.30;;;;;;;;;;5052443;28;20132;-83
2022/05/27 12:03:32;;;;;;;2.88;0.80;;;;;;;;;;5053536;28;20148;-84
2022/05/27 12:06:05;;;;;;;0.57;0.50;;;;;;;;;;5052453;28;20498;-83
2022/05/27 12:08:55;;;;;;;4.40;0.65;;;;;;;;;;5052141;28;20049;-83
2022/05/27 12:11:27;;;;;;;2.65;0.70;;;;;;;;;;5052713;28;20060;-83
2022/05/27 12:13:57;;;;;;;1.90;0.45;;;;;;;;;;5052309;28;20048;-82
2022/05/27 12:16:29;;;;;;;1.42;0.50;;;;;;;;;;5053079;28;20480;-82
2022/05/27 12:19:05;;;;;;;4.55;0.80;;;;;;;;;;5052240;28;20497;-82
2022/05/27 12:21:36;;;;;;;1.48;0.60;;;;;;;;;;5053542;28;20140;-82
2022/05/27 12:24:06;;;;;;;0.73;0.63;;;;;;;;;;5052040;28;20507;-83
2022/05/27 12:26:35;;;;;;;1.30;0.68;;;;;;;;;;5053219;28;20071;-82
2022/05/27 12:29:04;;;;;;;1.85;0.60;;;;;;;;;;5053377;28;20132;-82
2022/05/27 12:31:32;;;;;;;2.10;0.95;;;;;;;;;;5053225;28;20040;-82
2022/05/27 12:34:19;;;;;;;2.05;0.63;;;;;;;;;;5052096;28;20130;-82
2022/05/27 12:36:46;;;;;;;0.95;0.60;;;;;;;;;;5051835;28;20051;-83
2022/05/27 12:39:22;;;;;;;0.55;0.50;;;;;;;;;;5053221;28;20076;-83
2022/05/27 12:41:49;;;;;;;0.50;0.50;;;;;;;;;;5051835;28;20144;-83
2022/05/27 12:44:20;;;;;;;0.65;0.50;;;;;;;;;;5051654;28;20048;-83
2022/05/27 12:46:51;;;;;;;3.42;0.68;;;;;;;;;;5051819;28;20088;-83
2022/05/27 12:49:18;;;;;;;5.68;1.60;;;;;;;;;;5051671;28;20052;-83
2022/05/27 12:51:46;;;;;;;0.43;0.43;;;;;;;;;;5052882;28;20135;-83
2022/05/27 12:54:33;;;;;;;0.40;0.40;;;;;;;;;;5053037;28;20144;-83
2022/05/27 13:02:34;;;;;;;0.68;0.68;;;;;;;;;;5072954;28;20072;-84
2022/05/27 13:05:06;;;;;;;0.90;0.50;;;;;;;;;;5088123;28;20128;-82
2022/05/27 13:07:34;;;;;;;0.68;0.40;;;;;;;;;;5088320;28;20049;-82
2022/05/27 13:10:16;;;;;;;2.28;0.50;;;;;;;;;;5072363;28;20140;-82
2022/05/27 13:12:49;;;;;;;2.47;0.50;;;;;;;;;;5072891;28;20071;-83
2022/05/27 13:15:29;;;;;;;1.27;0.40;;;;;;;;;;5072313;28;20123;-82
2022/05/27 13:17:59;;;;;;;0.30;0.30;;;;;;;;;;5072771;28;20102;-83
2022/05/27 13:20:40;;;;;;;1.48;0.47;;;;;;;;;;5087757;28;20138;-82
2022/05/27 13:23:14;;;;;;;0.50;0.50;;;;;;;;;;5088072;28;20045;-83
2022/05/27 13:25:49;;;;;;;0.52;0.52;;;;;;;;;;5072224;28;20140;-83
2022/05/27 13:28:37;;;;;;;0.75;0.75;;;;;;;;;;5087117;28;20052;-83
2022/05/27 13:31:14;;;;;;;0.50;0.50;;;;;;;;;;5088492;28;20056;-83
2022/05/27 13:33:41;;;;;;;0.65;0.63;;;;;;;;;;5088072;28;20555;-84
2022/05/27 13:36:35;;;;;;;1.48;0.70;;;;;;;;;;5087931;28;20054;-83
2022/05/27 13:39:08;;;;;;;0.77;0.60;;;;;;;;;;5068215;28;20127;-82
2022/05/27 13:41:47;;;;;;;1.17;0.60;;;;;;;;;;5088077;28;20053;-83
2022/05/27 13:44:23;;;;;;;4.80;1.10;;;;;;;;;;5087044;28;20098;-83
2022/05/27 13:46:55;;;;;;;1.33;0.80;;;;;;;;;;5088432;28;20084;-84
2022/05/27 13:49:39;;;;;;;1.08;0.80;;;;;;;;;;5072722;28;20136;-85
2022/05/27 13:52:19;;;;;;;1.45;1.05;;;;;;;;;;5087977;28;20049;-84
2022/05/27 13:54:47;;;;;;;2.05;0.90;;;;;;;;;;5072574;28;20131;-82
2022/05/27 13:57:23;;;;;;;1.77;1.05;;;;;;;;;;5088019;28;20057;-84
2022/05/27 13:59:53;;;;;;;1.73;0.85;;;;;;;;;;5088093;28;20139;-83
2022/05/27 14:02:25;;;;;;;1.02;0.90;;;;;;;;;;5087600;28;20451;-84
2022/05/27 14:05:04;;;;;;;2.50;0.80;;;;;;;;;;5087936;28;20084;-85
2022/05/27 14:07:42;;;;;;;0.95;0.93;;;;;;;;;;5072725;28;20106;-84
2022/05/27 14:10:20;;;;;;;4.60;1.00;;;;;;;;;;5087896;28;20048;-86
2022/05/27 14:12:48;;;;;;;2.30;0.80;;;;;;;;;;5087834;28;20076;-85
2022/05/27 14:15:15;;;;;;;3.40;1.00;;;;;;;;;;5087881;28;20071;-84
2022/05/27 14:17:44;;;;;;;3.05;0.82;;;;;;;;;;5087660;28;20048;-87
2022/05/27 14:20:23;;;;;;;1.35;1.02;;;;;;;;;;5071907;28;20416;-84
2022/05/27 14:22:51;;;;;;;2.15;0.93;;;;;;;;;;5087343;28;20497;-84
2022/05/27 14:25:18;;;;;;;2.30;0.82;;;;;;;;;;5071537;28;20102;-84
2022/05/27 14:27:53;;;;;;;1.90;1.10;;;;;;;;;;5087244;28;20139;-85
2022/05/27 14:30:25;;;;;;;4.97;0.90;;;;;;;;;;5071826;28;20052;-88
2022/05/27 14:32:53;;;;;;;3.30;0.95;;;;;;;;;;5087815;28;20045;-87
2022/05/27 14:35:22;;;;;;;1.30;1.00;;;;;;;;;;5087563;28;20138;-87
2022/05/27 14:38:02;;;;;;;3.75;0.90;;;;;;;;;;5087741;28;20059;-86
2022/05/27 14:40:51;;;;;;;1.17;0.80;;;;;;;;;;5089232;28;20455;-85
2022/05/27 14:43:21;;;;;;;2.17;1.00;;;;;;;;;;5074738;28;20518;-83
2022/05/27 14:45:50;;;;;;;1.30;0.90;;;;;;;;;;5090747;28;20052;-85
2022/05/27 14:48:25;;;;;;;4.03;0.70;;;;;;;;;;5090725;28;20051;-84
2022/05/27 14:50:52;;;;;;;1.20;0.90;;;;;;;;;;5090725;28;20485;-85
2022/05/27 14:53:20;;;;;;;2.00;1.00;;;;;;;;;;5090745;28;20055;-84
2022/05/27 14:55:55;;;;;;;3.75;1.25;;;;;;;;;;5090971;28;20390;-84
2022/05/27 14:58:29;;;;;;;3.38;1.10;;;;;;;;;;5090130;28;20063;-84
2022/05/27 15:00:56;;;;;;;3.30;1.20;;;;;;;;;;5090708;28;20056;-83
2022/05/27 15:03:26;;;;;;;2.20;1.40;;;;;;;;;;5075088;28;20051;-84
2022/05/27 15:05:54;;;;;;;1.50;1.33;;;;;;;;;;5090427;28;20076;-83
2022/05/27 15:08:22;;;;;;;2.03;1.90;;;;;;;;;;5090603;28;20459;-84
2022/05/27 15:11:04;;;;;;;2.67;1.60;;;;;;;;;;5089446;28;20048;-85
2022/05/27 15:13:42;;;;;;;2.03;1.92;;;;;;;;;;5090304;28;20443;-84
2022/05/27 15:16:10;;;;;;;2.85;2.03;;;;;;;;;;5074425;28;20147;-83
2022/05/27 15:18:57;;;;;;;4.30;1.90;;;;;;;;;;5074499;28;20063;-83
2022/05/27 15:21:32;;;;;;;4.13;1.90;;;;;;;;;;5089947;28;20058;-84
2022/05/27 15:24:03;;;;;;;2.33;2.08;;;;;;;;;;5089786;28;20056;-83
2022/05/27 15:35:21;;;;;;;3.40;1.73;;;;;;;;;;5073937;28;20131;-83
2022/05/27 15:37:48;;;;;;;2.13;2.00;;;;;;;;;;5042870;28;20040;-83
2022/05/27 15:40:15;;;;;;;2.72;2.00;;;;;;;;;;5089128;28;20570;-83
2022/05/27 15:42:46;;;;;;;3.10;2.50;;;;;;;;;;5089669;28;20127;-83
2022/05/27 15:45:15;;;;;;;5.43;2.00;;;;;;;;;;5089285;28;20062;-83